createdAt,value
2019-05-20T00:00:52.146Z,0.72
2019-05-20T00:03:21.994Z,1.57
2019-05-20T00:05:51.919Z,0.50
2019-05-20T00:08:21.821Z,0.88
2019-05-20T00:10:51.680Z,0.50
2019-05-20T00:13:21.544Z,0.80
2019-05-20T00:15:51.394Z,1.00
2019-05-20T00:18:21.243Z,0.57
2019-05-20T00:20:51.457Z,3.12
2019-05-20T00:23:21.311Z,0.75
2019-05-20T00:25:51.222Z,2.05
2019-05-20T00:28:21.160Z,0.65
2019-05-20T00:30:51.078Z,3.30
2019-05-20T00:33:21.006Z,0.70
2019-05-20T00:35:51.351Z,0.35
2019-05-20T00:38:21.230Z,0.80
2019-05-20T00:40:51.069Z,2.17
2019-05-20T00:43:20.955Z,0.55
2019-05-20T00:45:50.795Z,0.62
2019-05-20T00:48:20.669Z,0.93
2019-05-20T00:50:50.526Z,1.32
2019-05-20T00:53:20.375Z,0.88
2019-05-20T00:55:50.221Z,1.27
2019-05-20T00:58:20.068Z,0.50
2019-05-20T01:00:50.094Z,0.55
2019-05-20T01:03:20.187Z,0.50
2019-05-20T01:05:51.115Z,2.25
2019-05-20T01:08:20.962Z,0.70
2019-05-20T01:10:51.882Z,0.88
2019-05-20T01:13:21.748Z,2.08
2019-05-20T01:15:51.947Z,0.72
2019-05-20T01:18:21.814Z,1.80
2019-05-20T01:20:53.193Z,0.80
2019-05-20T01:23:23.423Z,0.60
2019-05-20T01:25:53.262Z,1.25
2019-05-20T01:28:23.110Z,0.82
2019-05-20T01:30:54.052Z,0.50
2019-05-20T01:33:23.908Z,0.60
2019-05-20T01:35:53.749Z,2.45
2019-05-20T01:38:23.593Z,0.50
2019-05-20T01:40:53.447Z,2.02
2019-05-20T01:43:23.291Z,1.07
2019-05-20T01:45:53.142Z,0.80
2019-05-20T01:48:23.149Z,2.05
2019-05-20T01:50:53.005Z,0.60
2019-05-20T01:53:22.856Z,1.50
2019-05-20T01:55:52.706Z,1.35
2019-05-20T01:58:23.066Z,2.17
2019-05-20T02:00:52.911Z,1.85
2019-05-20T02:03:31.814Z,2.90
2019-05-20T02:05:54.293Z,1.72
2019-05-20T02:08:24.137Z,0.80
2019-05-20T02:10:56.443Z,1.37
2019-05-20T02:13:27.451Z,1.50
2019-05-20T02:16:04.940Z,1.50
2019-05-20T02:18:34.774Z,1.57
2019-05-20T02:21:04.632Z,7.72
2019-05-20T02:23:34.476Z,3.27
2019-05-20T02:26:04.350Z,1.70
2019-05-20T02:28:34.195Z,2.33
2019-05-20T02:31:04.030Z,2.72
2019-05-20T02:33:49.715Z,2.02
2019-05-20T02:36:05.353Z,0.80
2019-05-20T02:38:35.203Z,2.58
2019-05-20T02:41:05.734Z,0.95
2019-05-20T02:43:35.970Z,2.15
2019-05-20T02:46:06.178Z,3.10
2019-05-20T02:48:36.028Z,3.50
2019-05-20T02:51:07.522Z,1.25
2019-05-20T02:53:37.376Z,4.22
2019-05-20T02:56:07.230Z,1.77
2019-05-20T02:58:37.059Z,1.45
2019-05-20T03:01:06.921Z,1.15
2019-05-20T03:03:36.767Z,1.95
2019-05-20T03:06:06.629Z,6.87
2019-05-20T03:08:36.476Z,4.33
2019-05-20T03:11:06.308Z,2.77
2019-05-20T03:13:36.175Z,2.08
2019-05-20T03:16:06.384Z,2.05
2019-05-20T03:18:36.231Z,1.85
2019-05-20T03:21:06.089Z,1.57
2019-05-20T03:23:37.307Z,2.72
2019-05-20T03:26:07.133Z,1.92
2019-05-20T03:28:37.094Z,2.05
2019-05-20T03:31:06.951Z,3.02
2019-05-20T03:33:36.783Z,6.47
2019-05-20T03:36:06.822Z,3.25
2019-05-20T03:38:36.680Z,1.07
2019-05-20T03:41:06.536Z,1.95
2019-05-20T03:43:36.353Z,1.35
2019-05-20T03:46:06.231Z,1.32
2019-05-20T03:48:36.076Z,2.08
2019-05-20T03:51:05.915Z,2.42
2019-05-20T03:53:36.845Z,2.42
2019-05-20T03:56:06.676Z,2.37
2019-05-20T03:58:36.524Z,1.20
2019-05-20T04:01:06.376Z,10.05
2019-05-20T04:03:37.902Z,1.22
2019-05-20T04:06:07.816Z,2.33
2019-05-20T04:08:37.670Z,2.20
2019-05-20T04:11:07.529Z,1.65
2019-05-20T04:13:37.387Z,2.05
2019-05-20T04:16:07.245Z,2.33
2019-05-20T04:18:37.090Z,1.32
2019-05-20T04:21:06.936Z,1.00
2019-05-20T04:23:36.835Z,2.10
2019-05-20T04:26:06.823Z,1.87
2019-05-20T04:28:36.671Z,1.00
2019-05-20T04:31:06.523Z,2.75
2019-05-20T04:33:36.382Z,2.08
2019-05-20T04:36:06.227Z,2.70
2019-05-20T04:38:36.065Z,2.72
2019-05-20T04:41:06.272Z,1.95
2019-05-20T04:43:36.125Z,1.07
2019-05-20T04:46:05.981Z,2.10
2019-05-20T04:48:35.823Z,2.67
2019-05-20T04:51:05.677Z,4.80
2019-05-20T04:53:35.927Z,4.90
2019-05-20T04:56:06.842Z,2.75
2019-05-20T04:58:36.681Z,3.50
2019-05-20T05:01:06.841Z,5.03
2019-05-20T05:03:36.762Z,3.27
2019-05-20T05:06:06.598Z,4.22
2019-05-20T05:08:36.802Z,5.53
2019-05-20T05:11:06.658Z,3.95
2019-05-20T05:13:36.498Z,3.77
2019-05-20T05:16:06.359Z,5.67
2019-05-20T05:18:36.515Z,6.42
2019-05-20T05:21:06.368Z,7.58
2019-05-20T05:23:36.211Z,6.87
2019-05-20T05:26:06.069Z,6.12
2019-05-20T05:28:35.919Z,6.05
2019-05-20T05:31:05.772Z,9.15
2019-05-20T05:33:36.017Z,8.40
2019-05-20T05:36:05.863Z,7.15
2019-05-20T05:38:35.715Z,8.33
2019-05-20T05:41:05.586Z,8.50
2019-05-20T05:43:35.430Z,9.58
2019-05-20T05:46:05.311Z,9.10
2019-05-20T05:48:35.492Z,8.93
2019-05-20T05:51:05.327Z,8.65
2019-05-20T05:53:35.193Z,9.28
2019-05-20T05:56:05.026Z,13.72
2019-05-20T05:58:34.887Z,10.05
2019-05-20T06:01:04.753Z,10.23
2019-05-20T06:03:34.988Z,10.93
2019-05-20T06:06:12.266Z,9.53
2019-05-20T06:08:36.335Z,10.72
2019-05-20T06:11:06.221Z,11.18
2019-05-20T06:13:36.482Z,15.15
2019-05-20T06:16:06.373Z,11.97
2019-05-20T06:18:36.236Z,13.70
2019-05-20T06:21:06.087Z,12.10
2019-05-20T06:23:35.971Z,9.73
2019-05-20T06:26:06.246Z,12.53
2019-05-20T06:28:36.094Z,12.58
2019-05-20T06:31:05.965Z,13.90
2019-05-20T06:33:35.811Z,13.65
2019-05-20T06:36:06.637Z,14.25
2019-05-20T06:38:41.478Z,12.45
2019-05-20T06:41:11.343Z,17.90
2019-05-20T06:43:41.251Z,17.77
2019-05-20T06:46:11.146Z,13.83
2019-05-20T06:48:41.013Z,16.07
2019-05-20T06:51:10.868Z,14.07
2019-05-20T06:53:40.805Z,16.85
2019-05-20T06:56:10.676Z,12.88
2019-05-20T06:58:40.547Z,11.40
2019-05-20T07:01:11.374Z,12.30
2019-05-20T07:03:41.240Z,18.07
2019-05-20T07:06:11.111Z,17.77
2019-05-20T07:08:40.967Z,15.63
2019-05-20T07:11:10.809Z,16.35
2019-05-20T07:13:40.684Z,15.90
2019-05-20T07:16:11.720Z,19.05
2019-05-20T07:18:41.570Z,19.62
2019-05-20T07:21:11.508Z,18.10
2019-05-20T07:23:41.360Z,22.13
2019-05-20T07:26:11.226Z,19.20
2019-05-20T07:28:41.167Z,21.07
2019-05-20T07:31:11.029Z,17.15
2019-05-20T07:33:40.887Z,18.95
2019-05-20T07:36:10.752Z,21.05
2019-05-20T07:38:40.611Z,16.70
2019-05-20T07:41:10.472Z,20.55
2019-05-20T07:43:40.327Z,20.08
2019-05-20T07:46:10.187Z,21.02
2019-05-20T07:48:41.240Z,29.75
2019-05-20T07:51:12.081Z,32.23
2019-05-20T07:53:41.980Z,30.70
2019-05-20T07:56:17.123Z,30.77
2019-05-20T07:58:51.142Z,34.38
2019-05-20T08:01:21.020Z,31.45
2019-05-20T08:03:50.875Z,21.50
2019-05-20T08:06:20.761Z,26.70
2019-05-20T08:08:50.611Z,21.35
2019-05-20T08:11:20.490Z,23.45
2019-05-20T08:13:50.741Z,19.98
2019-05-20T08:16:20.613Z,21.37
2019-05-20T08:18:50.535Z,22.67
2019-05-20T08:21:20.442Z,20.15
2019-05-20T08:23:50.451Z,20.05
2019-05-20T08:26:20.283Z,23.95
2019-05-20T08:28:50.140Z,27.77
2019-05-20T08:31:20.004Z,22.67
2019-05-20T08:33:49.861Z,27.55
2019-05-20T08:36:19.742Z,18.57
2019-05-20T08:38:49.986Z,26.48
2019-05-20T08:41:19.845Z,22.30
2019-05-20T08:43:50.059Z,18.10
2019-05-20T08:46:19.872Z,20.60
2019-05-20T08:48:49.735Z,26.48
2019-05-20T08:51:19.606Z,19.67
2019-05-20T08:53:49.473Z,20.68
2019-05-20T08:56:19.334Z,19.05
2019-05-20T08:58:49.200Z,17.05
2019-05-20T09:01:19.075Z,17.30
2019-05-20T09:03:49.017Z,33.35
2019-05-20T09:06:20.812Z,20.05
2019-05-20T09:08:50.349Z,20.30
2019-05-20T09:11:20.320Z,23.42
2019-05-20T09:13:50.299Z,20.00
2019-05-20T09:16:20.169Z,18.48
2019-05-20T09:18:50.038Z,18.32
2019-05-20T09:21:19.878Z,19.07
2019-05-20T09:23:49.757Z,17.70
2019-05-20T09:26:19.710Z,20.82
2019-05-20T09:28:50.016Z,19.80
2019-05-20T09:31:20.018Z,17.80
2019-05-20T09:33:50.030Z,23.90
2019-05-20T09:36:20.371Z,23.05
2019-05-20T09:38:50.306Z,23.32
2019-05-20T09:41:20.246Z,21.27
2019-05-20T09:43:50.531Z,24.98
2019-05-20T09:46:20.759Z,21.37
2019-05-20T09:48:50.650Z,16.97
2019-05-20T09:51:20.585Z,20.80
2019-05-20T09:53:50.513Z,26.55
2019-05-20T09:56:20.379Z,19.65
2019-05-20T09:58:50.315Z,23.35
2019-05-20T10:01:20.190Z,19.02
2019-05-20T10:03:50.049Z,21.37
2019-05-20T10:06:19.909Z,20.05
2019-05-20T10:08:49.781Z,20.72
2019-05-20T10:11:19.630Z,21.20
2019-05-20T10:13:49.505Z,24.05
2019-05-20T10:16:19.352Z,23.98
2019-05-20T10:18:49.294Z,26.45
2019-05-20T10:21:19.168Z,21.45
2019-05-20T10:23:49.078Z,18.55
2019-05-20T10:26:19.065Z,24.40
2019-05-20T10:28:48.982Z,19.73
2019-05-20T10:31:18.853Z,22.85
2019-05-20T10:33:48.719Z,27.42
2019-05-20T10:36:18.586Z,29.77
2019-05-20T10:38:58.505Z,23.45
2019-05-20T10:41:21.050Z,28.62
2019-05-20T10:43:50.968Z,26.35
2019-05-20T10:46:20.837Z,27.42
2019-05-20T10:48:50.687Z,24.23
2019-05-20T10:51:20.543Z,25.23
2019-05-20T10:53:50.487Z,26.97
2019-05-20T10:56:20.339Z,23.57
2019-05-20T10:58:50.273Z,29.05
2019-05-20T11:01:20.138Z,24.50
2019-05-20T11:03:49.998Z,28.20
2019-05-20T11:06:19.855Z,24.00
2019-05-20T11:08:49.799Z,22.25
2019-05-20T11:11:19.668Z,27.27
2019-05-20T11:13:49.923Z,23.18
2019-05-20T11:16:19.793Z,26.23
2019-05-20T11:18:49.650Z,26.40
2019-05-20T11:21:19.518Z,24.92
2019-05-20T11:23:49.369Z,28.77
2019-05-20T11:26:19.243Z,29.12
2019-05-20T11:28:49.524Z,26.20
2019-05-20T11:31:19.402Z,23.05
2019-05-20T11:33:49.265Z,26.15
2019-05-20T11:36:19.165Z,26.45
2019-05-20T11:38:49.013Z,25.72
2019-05-20T11:41:18.882Z,23.52
2019-05-20T11:43:49.038Z,35.00
2019-05-20T11:46:18.914Z,28.45
2019-05-20T11:48:48.775Z,26.20
2019-05-20T11:51:18.952Z,28.87
2019-05-20T11:53:48.824Z,25.62
2019-05-20T11:56:18.687Z,26.80
2019-05-20T11:58:48.862Z,22.50
2019-05-20T12:01:18.728Z,25.85
2019-05-20T12:03:48.597Z,28.02
2019-05-20T12:06:18.449Z,21.52
2019-05-20T12:08:48.326Z,25.17
2019-05-20T12:11:18.228Z,26.27
2019-05-20T12:13:48.110Z,22.65
2019-05-20T12:16:18.308Z,23.50
2019-05-20T12:18:48.171Z,29.50
2019-05-20T12:21:18.055Z,23.50
2019-05-20T12:23:47.920Z,19.15
2019-05-20T12:26:17.793Z,14.58
2019-05-20T12:28:47.665Z,12.98
2019-05-20T12:31:17.591Z,13.70
2019-05-20T12:33:47.818Z,16.05
2019-05-20T12:36:17.693Z,17.00
2019-05-20T12:38:47.534Z,14.93
2019-05-20T12:41:17.488Z,13.65
2019-05-20T12:43:47.365Z,18.48
2019-05-20T12:46:17.234Z,17.60
2019-05-20T12:48:47.235Z,16.37
2019-05-20T12:51:17.125Z,14.78
2019-05-20T12:53:47.008Z,15.13
2019-05-20T12:56:19.443Z,16.15
2019-05-20T12:58:48.351Z,15.13
2019-05-20T13:01:18.209Z,17.85
2019-05-20T13:03:48.138Z,16.07
2019-05-20T13:06:18.359Z,15.78
2019-05-20T13:08:48.229Z,14.47
2019-05-20T13:11:18.140Z,15.93
2019-05-20T13:13:47.978Z,14.65
2019-05-20T13:16:17.860Z,19.50
2019-05-20T13:18:56.021Z,16.17
2019-05-20T13:21:19.575Z,16.20
2019-05-20T13:23:49.505Z,17.10
2019-05-20T13:26:19.397Z,12.58
2019-05-20T13:28:50.319Z,16.27
2019-05-20T13:31:20.175Z,17.92
2019-05-20T13:33:50.057Z,18.95
2019-05-20T13:36:19.937Z,19.37
2019-05-20T13:38:49.882Z,19.70
2019-05-20T13:41:19.755Z,18.32
2019-05-20T13:43:49.639Z,20.50
2019-05-20T13:46:19.845Z,22.82
2019-05-20T13:48:49.740Z,20.05
2019-05-20T13:51:19.686Z,19.42
2019-05-20T13:53:49.555Z,18.02
2019-05-20T13:56:19.418Z,25.30
2019-05-20T13:58:49.293Z,15.98
2019-05-20T14:01:19.560Z,14.58
2019-05-20T14:03:49.401Z,12.35
2019-05-20T14:06:19.263Z,11.95
2019-05-20T14:08:49.122Z,13.32
2019-05-20T14:11:32.524Z,11.80
2019-05-20T14:13:50.458Z,12.43
2019-05-20T14:16:20.777Z,13.50
2019-05-20T14:18:50.637Z,11.45
2019-05-20T14:21:20.965Z,12.80
2019-05-20T14:23:50.848Z,15.35
2019-05-20T14:26:20.695Z,11.63
2019-05-20T14:28:50.556Z,10.20
2019-05-20T14:31:20.522Z,9.08
2019-05-20T14:33:50.383Z,10.32
2019-05-20T14:36:38.604Z,7.90
2019-05-20T14:38:52.155Z,11.63
2019-05-20T14:41:22.308Z,11.22
2019-05-20T14:43:52.389Z,11.15
2019-05-20T14:46:22.243Z,10.98
2019-05-20T14:48:52.105Z,13.32
2019-05-20T14:51:21.974Z,11.85
2019-05-20T14:53:51.841Z,12.30
2019-05-20T14:56:21.690Z,8.73
2019-05-20T14:58:51.542Z,8.55
2019-05-20T15:01:22.372Z,8.50
2019-05-20T15:03:52.219Z,9.75
2019-05-20T15:06:22.061Z,6.62
2019-05-20T15:08:51.933Z,8.23
2019-05-20T15:11:35.630Z,7.47
2019-05-20T15:13:53.334Z,7.90
2019-05-20T15:16:23.174Z,10.82
2019-05-20T15:18:53.086Z,6.03
2019-05-20T15:21:28.479Z,6.28
2019-05-20T15:23:54.467Z,7.00
2019-05-20T15:26:24.529Z,5.62
2019-05-20T15:28:54.367Z,7.12
2019-05-20T15:31:24.214Z,6.95
2019-05-20T15:33:54.104Z,5.35
2019-05-20T15:36:24.026Z,9.95
2019-05-20T15:38:54.188Z,6.78
2019-05-20T15:41:24.057Z,8.63
2019-05-20T15:43:53.928Z,7.47
2019-05-20T15:46:23.769Z,8.20
2019-05-20T15:48:53.658Z,8.45
2019-05-20T15:51:23.521Z,7.08
2019-05-20T15:53:53.443Z,9.00
2019-05-20T15:56:23.309Z,8.80
2019-05-20T15:58:53.227Z,8.18
2019-05-20T16:01:23.082Z,10.45
2019-05-20T16:03:52.941Z,10.93
2019-05-20T16:06:22.794Z,9.33
2019-05-20T16:08:52.656Z,11.95
2019-05-20T16:11:22.960Z,10.25
2019-05-20T16:13:52.947Z,12.70
2019-05-20T16:16:22.803Z,12.88
2019-05-20T16:18:52.733Z,13.95
2019-05-20T16:21:22.587Z,13.10
2019-05-20T16:23:52.468Z,13.78
2019-05-20T16:26:22.660Z,11.93
2019-05-20T16:28:52.598Z,10.85
2019-05-20T16:31:23.536Z,13.43
2019-05-20T16:33:53.763Z,13.20
2019-05-20T16:36:23.716Z,13.98
2019-05-20T16:38:53.658Z,16.25
2019-05-20T16:41:23.586Z,13.35
2019-05-20T16:43:56.218Z,10.70
2019-05-20T16:46:26.085Z,12.33
2019-05-20T16:48:56.022Z,12.15
2019-05-20T16:51:25.904Z,13.98
2019-05-20T16:53:55.850Z,13.72
2019-05-20T16:56:25.782Z,12.50
2019-05-20T16:58:55.685Z,10.53
2019-05-20T17:01:25.954Z,12.70
2019-05-20T17:03:55.886Z,9.40
2019-05-20T17:06:27.634Z,13.58
2019-05-20T17:08:58.063Z,10.10
2019-05-20T17:11:27.913Z,9.20
2019-05-20T17:13:58.126Z,11.25
2019-05-20T17:16:28.455Z,9.18
2019-05-20T17:18:58.319Z,10.23
2019-05-20T17:21:29.233Z,9.73
2019-05-20T17:23:59.163Z,12.35
2019-05-20T17:26:29.010Z,11.35
2019-05-20T17:28:58.866Z,13.10
2019-05-20T17:31:30.846Z,8.63
2019-05-20T17:34:00.196Z,12.23
2019-05-20T17:36:30.060Z,11.30
2019-05-20T17:39:00.265Z,10.75
2019-05-20T17:41:31.753Z,10.50
2019-05-20T17:44:01.592Z,13.48
2019-05-20T17:46:31.462Z,12.82
2019-05-20T17:49:01.312Z,10.20
2019-05-20T17:51:31.619Z,10.28
2019-05-20T17:54:01.468Z,11.03
2019-05-20T17:56:31.409Z,9.35
2019-05-20T17:59:01.273Z,11.10
2019-05-20T18:01:31.130Z,8.08
2019-05-20T18:04:01.002Z,12.75
2019-05-20T18:06:30.850Z,22.27
2019-05-20T18:09:01.776Z,12.70
2019-05-20T18:11:33.657Z,12.23
2019-05-20T18:14:05.141Z,10.75
2019-05-20T18:16:35.003Z,15.85
2019-05-20T18:19:04.850Z,11.45
2019-05-20T18:21:34.739Z,16.07
2019-05-20T18:24:04.591Z,11.25
2019-05-20T18:26:37.033Z,12.73
2019-05-20T18:29:06.913Z,11.40
2019-05-20T18:31:36.759Z,15.90
2019-05-20T18:34:06.614Z,16.23
2019-05-20T18:36:36.471Z,15.40
2019-05-20T18:39:07.004Z,11.60
2019-05-20T18:41:37.037Z,14.33
2019-05-20T18:44:06.917Z,12.35
2019-05-20T18:46:37.821Z,9.45
2019-05-20T18:49:07.677Z,11.03
2019-05-20T18:51:38.945Z,8.25
2019-05-20T18:54:09.175Z,11.30
2019-05-20T18:56:39.051Z,13.48
2019-05-20T18:59:08.902Z,13.53
2019-05-20T19:01:50.646Z,9.95
2019-05-20T19:04:10.351Z,10.28
2019-05-20T19:06:40.268Z,9.13
2019-05-20T19:09:10.368Z,9.93
2019-05-20T19:11:40.228Z,6.75
2019-05-20T19:14:11.153Z,8.23
2019-05-20T19:16:41.008Z,7.75
2019-05-20T19:19:10.856Z,7.15
2019-05-20T19:21:40.715Z,5.53
2019-05-20T19:24:10.875Z,9.20
2019-05-20T19:26:40.736Z,9.75
2019-05-20T19:29:10.581Z,14.28
2019-05-20T19:31:40.452Z,6.62
2019-05-20T19:34:10.338Z,9.00
2019-05-20T19:36:40.275Z,7.58
2019-05-20T19:39:10.610Z,4.67
2019-05-20T19:41:42.055Z,6.60
2019-05-20T19:44:13.420Z,8.38
2019-05-20T19:46:44.955Z,8.18
2019-05-20T19:49:14.879Z,7.87
2019-05-20T19:51:44.807Z,7.62
2019-05-20T19:54:14.655Z,6.40
2019-05-20T19:56:44.532Z,6.22
2019-05-20T19:59:14.450Z,9.08
2019-05-20T20:01:44.390Z,10.65
2019-05-20T20:04:14.256Z,10.00
2019-05-20T20:06:44.122Z,9.33
2019-05-20T20:09:14.039Z,5.58
2019-05-20T20:11:43.901Z,8.13
2019-05-20T20:14:14.214Z,6.17
2019-05-20T20:17:21.366Z,7.92
2019-05-20T20:19:51.645Z,7.78
2019-05-20T20:22:21.493Z,10.75
2019-05-20T20:24:51.356Z,7.08
2019-05-20T20:27:21.284Z,9.35
2019-05-20T20:29:51.499Z,9.73
2019-05-20T20:32:36.762Z,7.45
2019-05-20T20:34:52.791Z,10.53
2019-05-20T20:37:22.643Z,11.60
2019-05-20T20:39:52.494Z,5.75
2019-05-20T20:42:22.389Z,10.15
2019-05-20T20:44:52.286Z,9.85
2019-05-20T20:47:22.152Z,9.30
2019-05-20T20:49:51.999Z,7.28
2019-05-20T20:52:21.853Z,7.35
2019-05-20T20:54:51.711Z,6.22
2019-05-20T20:57:21.577Z,8.75
2019-05-20T20:59:51.482Z,8.43
2019-05-20T21:02:52.219Z,9.03
2019-05-20T21:05:12.753Z,9.08
2019-05-20T21:07:42.576Z,12.53
2019-05-20T21:10:12.440Z,10.30
2019-05-20T21:12:42.911Z,10.43
2019-05-20T21:15:12.757Z,8.55
2019-05-20T21:17:42.615Z,8.28
2019-05-20T21:20:12.459Z,8.10
2019-05-20T21:22:42.374Z,8.40
2019-05-20T21:25:12.220Z,7.35
2019-05-20T21:27:42.076Z,7.72
2019-05-20T21:30:11.931Z,10.55
2019-05-20T21:32:41.785Z,9.00
2019-05-20T21:35:11.750Z,11.57
2019-05-20T21:37:41.617Z,8.88
2019-05-20T21:40:11.840Z,10.90
2019-05-20T21:42:41.695Z,10.53
2019-05-20T21:45:11.628Z,9.30
2019-05-20T21:47:44.579Z,8.53
2019-05-20T21:50:12.929Z,8.35
2019-05-20T21:52:43.099Z,9.80
2019-05-20T21:55:12.941Z,11.05
2019-05-20T21:57:42.809Z,9.85
2019-05-20T22:00:14.358Z,7.83
2019-05-20T22:02:45.077Z,6.43
2019-05-20T22:05:14.960Z,7.85
2019-05-20T22:07:44.799Z,8.10
2019-05-20T22:10:14.643Z,8.05
2019-05-20T22:12:44.496Z,6.97
2019-05-20T22:15:14.342Z,6.28
2019-05-20T22:17:44.195Z,7.35
2019-05-20T22:20:14.038Z,6.33
2019-05-20T22:23:02.413Z,5.40
2019-05-20T22:25:33.660Z,10.93
2019-05-20T22:28:03.506Z,7.58
2019-05-20T22:30:33.363Z,8.23
2019-05-20T22:33:03.209Z,9.78
2019-05-20T22:35:33.424Z,8.28
2019-05-20T22:38:03.267Z,5.72
2019-05-20T22:40:33.114Z,8.15
2019-05-20T22:43:03.001Z,8.65
2019-05-20T22:45:33.338Z,7.97
2019-05-20T22:48:03.183Z,6.42
2019-05-20T22:50:33.031Z,7.08
2019-05-20T22:53:02.881Z,5.97
2019-05-20T22:55:32.727Z,6.20
2019-05-20T22:58:02.959Z,5.97
2019-05-20T23:00:32.810Z,6.80
2019-05-20T23:03:03.506Z,7.22
2019-05-20T23:05:33.358Z,6.35
2019-05-20T23:08:03.206Z,10.05
2019-05-20T23:10:33.077Z,8.45
2019-05-20T23:13:02.948Z,8.63
2019-05-20T23:15:33.707Z,6.15
2019-05-20T23:18:03.584Z,9.25
2019-05-20T23:20:33.445Z,8.80
2019-05-20T23:23:03.305Z,11.10
2019-05-20T23:25:33.146Z,7.78
2019-05-20T23:28:03.021Z,7.47
2019-05-20T23:30:34.312Z,7.45
2019-05-20T23:33:04.531Z,7.75
2019-05-20T23:35:34.451Z,5.85
2019-05-20T23:38:04.299Z,6.42
2019-05-20T23:40:34.157Z,6.22
2019-05-20T23:43:04.009Z,5.15
2019-05-20T23:45:33.846Z,4.62
2019-05-20T23:48:03.722Z,7.08
2019-05-20T23:50:33.587Z,9.33
2019-05-20T23:53:03.438Z,5.78
2019-05-20T23:55:33.269Z,9.10
2019-05-20T23:58:03.114Z,4.70
